sensor_id;sensor_type;location;lat;lon;timestamp;pressure;altitude;pressure_sealevel;temperature;humidity
44659;BME280;30378;50.186;8.644;2022-10-31T00:01:12;100911.59;;;7.22;100.00
44659;BME280;30378;50.186;8.644;2022-10-31T00:03:39;100907.75;;;7.18;100.00
44659;BME280;30378;50.186;8.644;2022-10-31T00:06:06;100908.88;;;7.22;100.00
44659;BME280;30378;50.186;8.644;2022-10-31T00:08:33;100912.41;;;7.18;100.00
44659;BME280;30378;50.186;8.644;2022-10-31T00:11:00;100914.31;;;7.17;100.00
44659;BME280;30378;50.186;8.644;2022-10-31T00:13:27;100916.19;;;7.17;100.00
44659;BME280;30378;50.186;8.644;2022-10-31T00:15:54;100920.34;;;7.19;100.00
44659;BME280;30378;50.186;8.644;2022-10-31T00:18:21;100916.72;;;7.13;100.00
44659;BME280;30378;50.186;8.644;2022-10-31T00:20:48;100916.72;;;7.13;100.00
44659;BME280;30378;50.186;8.644;2022-10-31T00:23:15;100916.47;;;7.15;100.00
44659;BME280;30378;50.186;8.644;2022-10-31T00:25:42;100921.97;;;7.20;100.00
44659;BME280;30378;50.186;8.644;2022-10-31T00:28:10;100921.25;;;7.30;100.00
44659;BME280;30378;50.186;8.644;2022-10-31T00:30:38;100923.09;;;7.24;100.00
44659;BME280;30378;50.186;8.644;2022-10-31T00:33:05;100930.75;;;7.22;100.00
44659;BME280;30378;50.186;8.644;2022-10-31T00:35:32;100932.41;;;7.23;100.00
44659;BME280;30378;50.186;8.644;2022-10-31T00:38:00;100933.56;;;7.32;100.00
44659;BME280;30378;50.186;8.644;2022-10-31T00:40:26;100936.34;;;7.38;100.00
44659;BME280;30378;50.186;8.644;2022-10-31T00:42:53;100941.25;;;7.35;100.00
44659;BME280;30378;50.186;8.644;2022-10-31T00:45:20;100937.47;;;7.42;100.00
44659;BME280;30378;50.186;8.644;2022-10-31T00:47:47;100940.78;;;7.44;100.00
44659;BME280;30378;50.186;8.644;2022-10-31T00:50:14;100945.19;;;7.50;100.00
44659;BME280;30378;50.186;8.644;2022-10-31T00:52:41;100939.22;;;7.53;100.00
44659;BME280;30378;50.186;8.644;2022-10-31T00:55:08;100947.47;;;7.58;100.00
44659;BME280;30378;50.186;8.644;2022-10-31T00:57:36;100932.97;;;7.58;100.00
44659;BME280;30378;50.186;8.644;2022-10-31T01:00:04;100944.72;;;7.58;100.00
44659;BME280;30378;50.186;8.644;2022-10-31T01:02:32;100942.53;;;7.55;100.00
44659;BME280;30378;50.186;8.644;2022-10-31T01:04:59;100942.28;;;7.57;100.00
44659;BME280;30378;50.186;8.644;2022-10-31T01:07:27;100947.28;;;7.70;100.00
44659;BME280;30378;50.186;8.644;2022-10-31T01:09:53;100942.28;;;7.62;100.00
44659;BME280;30378;50.186;8.644;2022-10-31T01:12:21;100946.13;;;7.61;100.00
44659;BME280;30378;50.186;8.644;2022-10-31T01:14:47;100947.28;;;7.70;100.00
44659;BME280;30378;50.186;8.644;2022-10-31T01:17:17;100952.28;;;7.78;100.00
44659;BME280;30378;50.186;8.644;2022-10-31T01:19:46;100947.59;;;7.73;100.00
44659;BME280;30378;50.186;8.644;2022-10-31T01:22:13;100947.59;;;7.73;100.00
44659;BME280;30378;50.186;8.644;2022-10-31T01:24:40;100943.16;;;7.67;100.00
44659;BME280;30378;50.186;8.644;2022-10-31T01:27:07;100941.00;;;7.69;100.00
44659;BME280;30378;50.186;8.644;2022-10-31T01:29:34;100941.22;;;7.63;100.00
44659;BME280;30378;50.186;8.644;2022-10-31T01:32:01;100938.75;;;7.61;100.00
44659;BME280;30378;50.186;8.644;2022-10-31T01:34:28;100934.88;;;7.57;100.00
44659;BME280;30378;50.186;8.644;2022-10-31T01:36:55;100939.47;;;7.51;100.00
44659;BME280;30378;50.186;8.644;2022-10-31T01:39:22;100933.19;;;7.51;100.00
44659;BME280;30378;50.186;8.644;2022-10-31T01:41:51;100922.00;;;7.52;100.00
44659;BME280;30378;50.186;8.644;2022-10-31T01:46:50;100927.28;;;7.32;100.00
44659;BME280;30378;50.186;8.644;2022-10-31T01:49:24;100928.97;;;7.38;100.00
44659;BME280;30378;50.186;8.644;2022-10-31T01:52:44;100926.22;;;7.33;100.00
44659;BME280;30378;50.186;8.644;2022-10-31T01:54:48;100931.50;;;7.45;100.00
44659;BME280;30378;50.186;8.644;2022-10-31T01:57:18;100927.91;;;7.44;100.00
44659;BME280;30378;50.186;8.644;2022-10-31T01:59:51;100936.03;;;7.34;100.00
44659;BME280;30378;50.186;8.644;2022-10-31T02:02:19;100931.88;;;7.26;100.00
44659;BME280;30378;50.186;8.644;2022-10-31T02:04:46;100942.00;;;7.26;100.00
44659;BME280;30378;50.186;8.644;2022-10-31T02:07:22;100935.06;;;7.18;100.00
44659;BME280;30378;50.186;8.644;2022-10-31T02:09:51;100929.56;;;7.13;100.00
44659;BME280;30378;50.186;8.644;2022-10-31T02:12:20;100921.56;;;7.06;100.00
44659;BME280;30378;50.186;8.644;2022-10-31T02:14:47;100925.69;;;7.09;100.00
44659;BME280;30378;50.186;8.644;2022-10-31T02:17:14;100924.28;;;7.01;100.00
44659;BME280;30378;50.186;8.644;2022-10-31T02:23:14;100913.63;;;7.05;100.00
44659;BME280;30378;50.186;8.644;2022-10-31T02:31:31;100935.47;;;7.05;100.00
44659;BME280;30378;50.186;8.644;2022-10-31T02:34:26;100937.97;;;7.06;100.00
44659;BME280;30378;50.186;8.644;2022-10-31T02:37:12;100935.56;;;7.10;100.00
44659;BME280;30378;50.186;8.644;2022-10-31T02:39:50;100935.22;;;7.06;100.00
44659;BME280;30378;50.186;8.644;2022-10-31T02:42:39;100932.81;;;7.10;100.00
44659;BME280;30378;50.186;8.644;2022-10-31T02:45:13;100939.09;;;7.10;100.00
44659;BME280;30378;50.186;8.644;2022-10-31T02:47:41;100933.94;;;7.14;100.00
44659;BME280;30378;50.186;8.644;2022-10-31T02:50:22;100946.00;;;7.18;100.00
44659;BME280;30378;50.186;8.644;2022-10-31T02:52:52;100934.56;;;7.21;100.00
44659;BME280;30378;50.186;8.644;2022-10-31T02:58:03;100937.81;;;7.18;100.00
44659;BME280;30378;50.186;8.644;2022-10-31T03:03:26;100938.69;;;7.24;100.00
44659;BME280;30378;50.186;8.644;2022-10-31T03:06:09;100933.44;;;7.17;100.00
44659;BME280;30378;50.186;8.644;2022-10-31T03:09:01;100930.72;;;7.17;100.00
44659;BME280;30378;50.186;8.644;2022-10-31T03:11:34;100922.50;;;7.17;100.00
44659;BME280;30378;50.186;8.644;2022-10-31T03:14:11;100919.22;;;7.15;100.00
44659;BME280;30378;50.186;8.644;2022-10-31T03:16:47;100925.19;;;7.12;100.00
44659;BME280;30378;50.186;8.644;2022-10-31T03:19:19;100923.53;;;7.11;100.00
44659;BME280;30378;50.186;8.644;2022-10-31T03:21:59;100911.75;;;7.05;100.00
44659;BME280;30378;50.186;8.644;2022-10-31T03:24:32;100914.81;;;7.14;100.00
44659;BME280;30378;50.186;8.644;2022-10-31T03:27:01;100909.66;;;7.18;100.00
44659;BME280;30378;50.186;8.644;2022-10-31T03:29:33;100911.25;;;7.13;100.00
44659;BME280;30378;50.186;8.644;2022-10-31T03:32:09;100921.38;;;7.13;100.00
44659;BME280;30378;50.186;8.644;2022-10-31T03:34:39;100918.38;;;7.14;100.00
44659;BME280;30378;50.186;8.644;2022-10-31T03:37:10;100909.59;;;7.12;100.00
44659;BME280;30378;50.186;8.644;2022-10-31T03:39:41;100912.88;;;7.09;100.00
44659;BME280;30378;50.186;8.644;2022-10-31T03:42:20;100907.97;;;7.11;100.00
44659;BME280;30378;50.186;8.644;2022-10-31T03:45:06;100908.16;;;7.05;100.00
44659;BME280;30378;50.186;8.644;2022-10-31T03:47:35;100909.88;;;7.11;100.00
44659;BME280;30378;50.186;8.644;2022-10-31T03:50:05;100913.75;;;7.15;100.00
44659;BME280;30378;50.186;8.644;2022-10-31T03:55:13;100901.97;;;7.14;100.00
44659;BME280;30378;50.186;8.644;2022-10-31T04:00:25;100903.53;;;7.05;100.00
44659;BME280;30378;50.186;8.644;2022-10-31T04:03:09;100901.00;;;6.99;100.00
44659;BME280;30378;50.186;8.644;2022-10-31T04:05:38;100901.84;;;6.99;100.00
44659;BME280;30378;50.186;8.644;2022-10-31T04:08:09;100903.94;;;6.92;100.00
44659;BME280;30378;50.186;8.644;2022-10-31T04:10:40;100902.59;;;6.94;100.00
44659;BME280;30378;50.186;8.644;2022-10-31T04:13:11;100898.97;;;6.89;100.00
44659;BME280;30378;50.186;8.644;2022-10-31T04:15:50;100897.59;;;6.86;100.00
44659;BME280;30378;50.186;8.644;2022-10-31T04:18:24;100898.94;;;6.84;100.00
44659;BME280;30378;50.186;8.644;2022-10-31T04:21:06;100898.94;;;6.84;100.00
44659;BME280;30378;50.186;8.644;2022-10-31T04:23:35;100899.69;;;6.79;100.00
44659;BME280;30378;50.186;8.644;2022-10-31T04:26:20;100906.19;;;6.73;100.00
44659;BME280;30378;50.186;8.644;2022-10-31T04:28:47;100915.47;;;6.72;100.00
44659;BME280;30378;50.186;8.644;2022-10-31T04:31:14;100913.25;;;6.69;100.00
44659;BME280;30378;50.186;8.644;2022-10-31T04:33:43;100915.97;;;6.69;100.00
44659;BME280;30378;50.186;8.644;2022-10-31T04:36:11;100916.56;;;6.71;100.00
44659;BME280;30378;50.186;8.644;2022-10-31T04:38:38;100917.66;;;6.70;100.00
44659;BME280;30378;50.186;8.644;2022-10-31T04:41:14;100923.59;;;6.67;100.00
44659;BME280;30378;50.186;8.644;2022-10-31T04:43:50;100918.16;;;6.67;100.00
44659;BME280;30378;50.186;8.644;2022-10-31T04:46:18;100928.31;;;6.71;100.00
44659;BME280;30378;50.186;8.644;2022-10-31T04:48:45;100939.59;;;6.80;100.00
44659;BME280;30378;50.186;8.644;2022-10-31T04:51:12;100939.59;;;6.80;100.00
44659;BME280;30378;50.186;8.644;2022-10-31T04:53:39;100940.44;;;6.81;100.00
44659;BME280;30378;50.186;8.644;2022-10-31T04:56:25;100933.56;;;6.78;100.00
44659;BME280;30378;50.186;8.644;2022-10-31T04:58:57;100938.25;;;6.83;100.00
44659;BME280;30378;50.186;8.644;2022-10-31T05:01:27;100932.22;;;6.81;100.00
44659;BME280;30378;50.186;8.644;2022-10-31T05:03:56;100935.59;;;6.88;100.00
44659;BME280;30378;50.186;8.644;2022-10-31T05:06:23;100935.53;;;6.83;100.00
44659;BME280;30378;50.186;8.644;2022-10-31T05:08:50;100938.59;;;6.86;100.00
44659;BME280;30378;50.186;8.644;2022-10-31T05:11:17;100920.03;;;6.88;100.00
44659;BME280;30378;50.186;8.644;2022-10-31T05:13:44;100923.84;;;6.87;100.00
44659;BME280;30378;50.186;8.644;2022-10-31T05:16:11;100909.97;;;6.94;100.00
44659;BME280;30378;50.186;8.644;2022-10-31T05:18:56;100914.66;;;6.99;100.00
44659;BME280;30378;50.186;8.644;2022-10-31T05:21:52;100912.50;;;7.01;100.00
44659;BME280;30378;50.186;8.644;2022-10-31T05:24:19;100908.13;;;7.00;100.00
44659;BME280;30378;50.186;8.644;2022-10-31T05:26:49;100905.41;;;7.00;100.00
44659;BME280;30378;50.186;8.644;2022-10-31T05:29:16;100916.09;;;7.06;100.00
44659;BME280;30378;50.186;8.644;2022-10-31T05:31:43;100904.66;;;7.09;100.00
44659;BME280;30378;50.186;8.644;2022-10-31T05:34:24;100913.19;;;7.13;100.00
44659;BME280;30378;50.186;8.644;2022-10-31T05:37:14;100911.03;;;7.20;100.00
44659;BME280;30378;50.186;8.644;2022-10-31T05:39:41;100907.75;;;7.18;100.00
44659;BME280;30378;50.186;8.644;2022-10-31T05:42:13;100912.41;;;7.18;100.00
44659;BME280;30378;50.186;8.644;2022-10-31T05:44:41;100913.78;;;7.20;100.00
44659;BME280;30378;50.186;8.644;2022-10-31T05:47:22;100923.09;;;7.24;100.00
44659;BME280;30378;50.186;8.644;2022-10-31T05:49:55;100924.47;;;7.22;100.00
44659;BME280;30378;50.186;8.644;2022-10-31T05:52:42;100916.50;;;7.20;100.00
44659;BME280;30378;50.186;8.644;2022-10-31T05:55:26;100913.28;;;7.23;100.00
44659;BME280;30378;50.186;8.644;2022-10-31T05:58:08;100910.84;;;7.27;100.00
44659;BME280;30378;50.186;8.644;2022-10-31T06:00:37;100905.22;;;7.44;100.00
44659;BME280;30378;50.186;8.644;2022-10-31T06:03:08;100923.44;;;7.65;100.00
44659;BME280;30378;50.186;8.644;2022-10-31T06:05:56;100936.50;;;7.90;100.00
44659;BME280;30378;50.186;8.644;2022-10-31T06:08:29;100936.03;;;8.04;100.00
44659;BME280;30378;50.186;8.644;2022-10-31T06:10:59;100941.22;;;8.00;100.00
44659;BME280;30378;50.186;8.644;2022-10-31T06:13:49;100939.22;;;7.90;100.00
44659;BME280;30378;50.186;8.644;2022-10-31T06:16:22;100936.19;;;7.87;100.00
44659;BME280;30378;50.186;8.644;2022-10-31T06:18:50;100936.16;;;7.82;100.00
44659;BME280;30378;50.186;8.644;2022-10-31T06:21:17;100936.06;;;7.71;100.00
44659;BME280;30378;50.186;8.644;2022-10-31T06:23:44;100933.88;;;7.68;100.00
44659;BME280;30378;50.186;8.644;2022-10-31T06:26:31;100926.78;;;7.72;100.00
44659;BME280;30378;50.186;8.644;2022-10-31T06:28:58;100925.25;;;7.87;100.00
44659;BME280;30378;50.186;8.644;2022-10-31T06:31:55;100925.31;;;7.97;100.00
44659;BME280;30378;50.186;8.644;2022-10-31T06:34:21;100922.06;;;8.05;100.00
44659;BME280;30378;50.186;8.644;2022-10-31T06:36:49;100919.97;;;8.18;100.00
44659;BME280;30378;50.186;8.644;2022-10-31T06:39:19;100918.59;;;8.78;100.00
44659;BME280;30378;50.186;8.644;2022-10-31T06:41:47;100901.94;;;9.67;100.00
44659;BME280;30378;50.186;8.644;2022-10-31T06:44:18;100887.88;;;10.04;100.00
44659;BME280;30378;50.186;8.644;2022-10-31T06:46:54;100858.66;;;10.39;100.00
44659;BME280;30378;50.186;8.644;2022-10-31T06:49:39;100846.91;;;10.78;100.00
44659;BME280;30378;50.186;8.644;2022-10-31T06:52:15;100831.66;;;11.84;100.00
44659;BME280;30378;50.186;8.644;2022-10-31T06:54:42;100797.00;;;12.50;100.00
44659;BME280;30378;50.186;8.644;2022-10-31T06:57:09;100783.75;;;13.04;100.00
44659;BME280;30378;50.186;8.644;2022-10-31T06:59:37;100758.09;;;13.64;100.00
44659;BME280;30378;50.186;8.644;2022-10-31T07:02:20;100736.06;;;14.87;100.00
44659;BME280;30378;50.186;8.644;2022-10-31T07:04:48;100729.19;;;15.38;100.00
44659;BME280;30378;50.186;8.644;2022-10-31T07:07:16;100716.38;;;16.35;100.00
44659;BME280;30378;50.186;8.644;2022-10-31T07:09:45;100732.19;;;16.78;100.00
44659;BME280;30378;50.186;8.644;2022-10-31T07:12:15;100745.50;;;15.80;100.00
44659;BME280;30378;50.186;8.644;2022-10-31T07:14:53;100736.09;;;17.20;100.00
44659;BME280;30378;50.186;8.644;2022-10-31T07:17:23;100747.50;;;15.57;100.00
44659;BME280;30378;50.186;8.644;2022-10-31T07:19:56;100742.69;;;13.77;100.00
44659;BME280;30378;50.186;8.644;2022-10-31T07:22:23;100736.66;;;12.81;100.00
44659;BME280;30378;50.186;8.644;2022-10-31T07:24:50;100733.56;;;12.12;100.00
44659;BME280;30378;50.186;8.644;2022-10-31T07:27:39;100735.28;;;12.98;100.00
44659;BME280;30378;50.186;8.644;2022-10-31T07:30:10;100729.69;;;14.86;100.00
44659;BME280;30378;50.186;8.644;2022-10-31T07:32:50;100737.09;;;15.62;100.00
44659;BME280;30378;50.186;8.644;2022-10-31T07:35:21;100725.84;;;15.59;100.00
44659;BME280;30378;50.186;8.644;2022-10-31T07:37:56;100737.09;;;15.62;100.00
44659;BME280;30378;50.186;8.644;2022-10-31T07:40:24;100734.34;;;15.31;100.00
44659;BME280;30378;50.186;8.644;2022-10-31T07:42:52;100732.41;;;15.32;100.00
44659;BME280;30378;50.186;8.644;2022-10-31T07:45:42;100740.66;;;17.63;100.00
44659;BME280;30378;50.186;8.644;2022-10-31T07:48:28;100746.88;;;17.60;100.00
44659;BME280;30378;50.186;8.644;2022-10-31T07:51:20;100746.19;;;17.34;100.00
44659;BME280;30378;50.186;8.644;2022-10-31T07:54:06;100747.19;;;19.36;100.00
44659;BME280;30378;50.186;8.644;2022-10-31T07:56:33;100756.25;;;20.31;100.00
44659;BME280;30378;50.186;8.644;2022-10-31T07:59:00;100759.72;;;20.93;100.00
44659;BME280;30378;50.186;8.644;2022-10-31T08:01:28;100756.16;;;20.80;100.00
44659;BME280;30378;50.186;8.644;2022-10-31T08:04:18;100760.34;;;22.46;100.00
44659;BME280;30378;50.186;8.644;2022-10-31T08:07:23;100762.19;;;21.27;100.00
44659;BME280;30378;50.186;8.644;2022-10-31T08:09:57;100765.22;;;22.68;100.00
44659;BME280;30378;50.186;8.644;2022-10-31T08:12:28;100761.38;;;21.54;100.00
44659;BME280;30378;50.186;8.644;2022-10-31T08:14:56;100755.03;;;22.60;100.00
44659;BME280;30378;50.186;8.644;2022-10-31T08:17:23;100755.72;;;23.35;100.00
44659;BME280;30378;50.186;8.644;2022-10-31T08:19:54;100752.94;;;20.01;100.00
44659;BME280;30378;50.186;8.644;2022-10-31T08:22:27;100747.41;;;17.92;100.00
44659;BME280;30378;50.186;8.644;2022-10-31T08:24:54;100741.22;;;17.48;100.00
44659;BME280;30378;50.186;8.644;2022-10-31T08:27:21;100749.38;;;16.89;100.00
44659;BME280;30378;50.186;8.644;2022-10-31T08:29:48;100743.78;;;16.62;100.00
44659;BME280;30378;50.186;8.644;2022-10-31T08:32:15;100738.06;;;17.11;100.00
44659;BME280;30378;50.186;8.644;2022-10-31T08:35:03;100728.69;;;17.72;100.00
44659;BME280;30378;50.186;8.644;2022-10-31T08:37:52;100736.81;;;16.65;100.00
44659;BME280;30378;50.186;8.644;2022-10-31T08:40:24;100729.41;;;16.08;100.00
44659;BME280;30378;50.186;8.644;2022-10-31T08:43:10;100727.94;;;16.11;100.00
44659;BME280;30378;50.186;8.644;2022-10-31T08:45:38;100728.13;;;15.25;100.00
44659;BME280;30378;50.186;8.644;2022-10-31T08:48:14;100720.41;;;14.60;100.00
44659;BME280;30378;50.186;8.644;2022-10-31T08:50:42;100707.53;;;14.41;100.00
44659;BME280;30378;50.186;8.644;2022-10-31T08:53:12;100704.84;;;14.73;100.00
44659;BME280;30378;50.186;8.644;2022-10-31T08:55:43;100709.31;;;14.82;100.00
44659;BME280;30378;50.186;8.644;2022-10-31T08:58:24;100714.91;;;15.22;100.00
44659;BME280;30378;50.186;8.644;2022-10-31T09:00:59;100712.91;;;14.60;100.00
44659;BME280;30378;50.186;8.644;2022-10-31T09:03:28;100708.53;;;14.59;100.00
44659;BME280;30378;50.186;8.644;2022-10-31T09:06:00;100700.47;;;14.72;100.00
44659;BME280;30378;50.186;8.644;2022-10-31T09:08:29;100706.84;;;15.03;100.00
44659;BME280;30378;50.186;8.644;2022-10-31T09:10:57;100705.56;;;15.41;100.00
44659;BME280;30378;50.186;8.644;2022-10-31T09:13:44;100701.72;;;15.19;100.00
44659;BME280;30378;50.186;8.644;2022-10-31T09:16:29;100705.03;;;15.30;100.00
44659;BME280;30378;50.186;8.644;2022-10-31T09:18:57;100707.72;;;16.19;100.00
44659;BME280;30378;50.186;8.644;2022-10-31T09:21:24;100705.53;;;15.72;100.00
44659;BME280;30378;50.186;8.644;2022-10-31T09:23:52;100703.25;;;17.22;100.00
44659;BME280;30378;50.186;8.644;2022-10-31T09:26:20;100705.91;;;18.08;100.00
44659;BME280;30378;50.186;8.644;2022-10-31T09:29:07;100704.06;;;18.75;100.00
44659;BME280;30378;50.186;8.644;2022-10-31T09:31:37;100710.03;;;19.32;100.00
44659;BME280;30378;50.186;8.644;2022-10-31T09:34:18;100711.22;;;20.05;100.00
44659;BME280;30378;50.186;8.644;2022-10-31T09:36:54;100711.47;;;20.40;100.00
44659;BME280;30378;50.186;8.644;2022-10-31T09:39:23;100713.34;;;20.36;100.00
44659;BME280;30378;50.186;8.644;2022-10-31T09:47:38;100694.34;;;18.27;100.00
44659;BME280;30378;50.186;8.644;2022-10-31T09:50:58;100687.53;;;18.91;100.00
44659;BME280;30378;50.186;8.644;2022-10-31T09:56:16;100685.78;;;19.69;100.00
44659;BME280;30378;50.186;8.644;2022-10-31T09:58:56;100687.97;;;19.64;100.00
44659;BME280;30378;50.186;8.644;2022-10-31T10:01:39;100688.72;;;18.69;100.00
44659;BME280;30378;50.186;8.644;2022-10-31T10:07:38;100677.59;;;19.15;100.00
44659;BME280;30378;50.186;8.644;2022-10-31T10:21:02;100658.50;;;18.26;100.00
44659;BME280;30378;50.186;8.644;2022-10-31T10:23:40;100655.16;;;18.53;100.00
44659;BME280;30378;50.186;8.644;2022-10-31T10:26:23;100655.00;;;18.50;100.00
44659;BME280;30378;50.186;8.644;2022-10-31T10:28:57;100649.63;;;17.90;100.00
44659;BME280;30378;50.186;8.644;2022-10-31T10:31:28;100658.84;;;18.24;100.00
44659;BME280;30378;50.186;8.644;2022-10-31T10:34:12;100654.38;;;17.60;100.00
44659;BME280;30378;50.186;8.644;2022-10-31T10:36:45;100645.31;;;17.72;100.00
44659;BME280;30378;50.186;8.644;2022-10-31T10:41:44;100644.81;;;17.99;100.00
44659;BME280;30378;50.186;8.644;2022-10-31T10:44:12;100642.91;;;18.12;100.00
44659;BME280;30378;50.186;8.644;2022-10-31T10:46:43;100637.53;;;18.28;100.00
44659;BME280;30378;50.186;8.644;2022-10-31T10:49:51;100630.50;;;18.31;100.00
44659;BME280;30378;50.186;8.644;2022-10-31T10:55:30;100623.31;;;18.75;100.00
44659;BME280;30378;50.186;8.644;2022-10-31T10:58:04;100629.22;;;19.19;100.00
44659;BME280;30378;50.186;8.644;2022-10-31T11:00:41;100628.06;;;19.20;100.00
44659;BME280;30378;50.186;8.644;2022-10-31T11:03:10;100624.31;;;18.25;100.00
44659;BME280;30378;50.186;8.644;2022-10-31T11:05:58;100609.78;;;18.40;100.00
44659;BME280;30378;50.186;8.644;2022-10-31T11:08:35;100601.28;;;18.70;100.00
44659;BME280;30378;50.186;8.644;2022-10-31T11:11:29;100602.53;;;18.94;100.00
44659;BME280;30378;50.186;8.644;2022-10-31T11:14:02;100602.06;;;18.92;100.00
44659;BME280;30378;50.186;8.644;2022-10-31T11:16:33;100602.97;;;19.33;100.00
44659;BME280;30378;50.186;8.644;2022-10-31T11:19:20;100598.06;;;19.67;100.00
44659;BME280;30378;50.186;8.644;2022-10-31T11:21:48;100590.28;;;19.72;100.00
44659;BME280;30378;50.186;8.644;2022-10-31T11:24:19;100590.63;;;19.71;100.00
44659;BME280;30378;50.186;8.644;2022-10-31T11:26:49;100584.88;;;19.27;100.00
44659;BME280;30378;50.186;8.644;2022-10-31T11:29:25;100581.94;;;19.60;100.00
44659;BME280;30378;50.186;8.644;2022-10-31T11:31:56;100575.78;;;19.79;100.00
44659;BME280;30378;50.186;8.644;2022-10-31T11:36:53;100573.44;;;19.81;100.00
44659;BME280;30378;50.186;8.644;2022-10-31T11:39:23;100562.84;;;19.87;100.00
44659;BME280;30378;50.186;8.644;2022-10-31T11:41:52;100568.59;;;19.53;100.00
44659;BME280;30378;50.186;8.644;2022-10-31T11:44:23;100557.34;;;19.90;100.00
44659;BME280;30378;50.186;8.644;2022-10-31T11:46:53;100563.50;;;19.96;100.00
44659;BME280;30378;50.186;8.644;2022-10-31T11:49:31;100564.25;;;19.80;100.00
44659;BME280;30378;50.186;8.644;2022-10-31T11:52:28;100556.91;;;19.88;100.00
44659;BME280;30378;50.186;8.644;2022-10-31T11:57:57;100538.34;;;19.02;100.00
44659;BME280;30378;50.186;8.644;2022-10-31T12:00:28;100529.97;;;19.80;100.00
44659;BME280;30378;50.186;8.644;2022-10-31T12:06:21;100537.84;;;19.37;100.00
44659;BME280;30378;50.186;8.644;2022-10-31T12:08:50;100526.75;;;19.66;100.00
44659;BME280;30378;50.186;8.644;2022-10-31T12:11:27;100532.72;;;20.20;100.00
44659;BME280;30378;50.186;8.644;2022-10-31T12:16:39;100531.03;;;20.48;100.00
44659;BME280;30378;50.186;8.644;2022-10-31T12:22:02;100519.78;;;20.28;100.00
44659;BME280;30378;50.186;8.644;2022-10-31T12:25:04;100508.53;;;20.40;100.00
44659;BME280;30378;50.186;8.644;2022-10-31T12:27:56;100517.91;;;19.11;100.00
44659;BME280;30378;50.186;8.644;2022-10-31T12:30:36;100514.16;;;19.44;100.00
44659;BME280;30378;50.186;8.644;2022-10-31T12:33:32;100506.31;;;20.18;100.00
44659;BME280;30378;50.186;8.644;2022-10-31T12:36:17;100504.94;;;20.40;100.00
44659;BME280;30378;50.186;8.644;2022-10-31T12:44:12;100517.00;;;19.72;100.00
44659;BME280;30378;50.186;8.644;2022-10-31T12:49:44;100511.38;;;20.72;100.00
44659;BME280;30378;50.186;8.644;2022-10-31T12:52:35;100506.00;;;20.99;100.00
44659;BME280;30378;50.186;8.644;2022-10-31T12:58:00;100473.75;;;21.02;100.00
44659;BME280;30378;50.186;8.644;2022-10-31T13:00:31;100448.09;;;20.00;100.00
44659;BME280;30378;50.186;8.644;2022-10-31T13:05:40;100445.31;;;19.72;100.00
44659;BME280;30378;50.186;8.644;2022-10-31T13:08:51;100441.59;;;19.68;100.00
44659;BME280;30378;50.186;8.644;2022-10-31T13:11:27;100434.16;;;20.00;100.00
44659;BME280;30378;50.186;8.644;2022-10-31T13:16:48;100426.84;;;19.39;100.00
44659;BME280;30378;50.186;8.644;2022-10-31T13:19:35;100415.06;;;19.87;100.00
44659;BME280;30378;50.186;8.644;2022-10-31T13:22:09;100407.59;;;20.07;100.00
44659;BME280;30378;50.186;8.644;2022-10-31T13:24:48;100412.72;;;19.89;100.00
44659;BME280;30378;50.186;8.644;2022-10-31T13:27:23;100407.94;;;19.89;100.00
44659;BME280;30378;50.186;8.644;2022-10-31T13:30:21;100405.03;;;19.29;100.00
44659;BME280;30378;50.186;8.644;2022-10-31T13:32:54;100398.06;;;19.35;100.00
44659;BME280;30378;50.186;8.644;2022-10-31T13:35:29;100400.72;;;18.91;100.00
44659;BME280;30378;50.186;8.644;2022-10-31T13:38:24;100391.34;;;18.96;100.00
44659;BME280;30378;50.186;8.644;2022-10-31T13:45:55;100381.31;;;19.07;100.00
44659;BME280;30378;50.186;8.644;2022-10-31T13:51:01;100387.06;;;19.27;100.00
44659;BME280;30378;50.186;8.644;2022-10-31T13:53:43;100376.81;;;19.31;100.00
44659;BME280;30378;50.186;8.644;2022-10-31T13:56:17;100380.13;;;19.20;100.00
44659;BME280;30378;50.186;8.644;2022-10-31T14:01:31;100379.13;;;19.00;100.00
44659;BME280;30378;50.186;8.644;2022-10-31T14:06:42;100370.56;;;18.93;100.00
44659;BME280;30378;50.186;8.644;2022-10-31T14:12:00;100358.84;;;18.75;100.00
44659;BME280;30378;50.186;8.644;2022-10-31T14:14:33;100364.78;;;18.61;100.00
44659;BME280;30378;50.186;8.644;2022-10-31T14:17:02;100356.56;;;18.65;100.00
44659;BME280;30378;50.186;8.644;2022-10-31T14:19:29;100356.13;;;18.26;100.00
44659;BME280;30378;50.186;8.644;2022-10-31T14:21:56;100345.56;;;18.19;100.00
44659;BME280;30378;50.186;8.644;2022-10-31T14:27:01;100338.03;;;18.08;100.00
44659;BME280;30378;50.186;8.644;2022-10-31T14:29:33;100340.09;;;17.98;100.00
44659;BME280;30378;50.186;8.644;2022-10-31T14:32:04;100339.44;;;17.89;100.00
44659;BME280;30378;50.186;8.644;2022-10-31T14:34:43;100333.88;;;17.89;100.00
44659;BME280;30378;50.186;8.644;2022-10-31T14:51:46;100355.50;;;18.94;100.00
44659;BME280;30378;50.186;8.644;2022-10-31T14:54:27;100354.22;;;18.79;100.00
44659;BME280;30378;50.186;8.644;2022-10-31T14:57:01;100332.38;;;19.06;100.00
44659;BME280;30378;50.186;8.644;2022-10-31T14:59:35;100315.31;;;18.95;100.00
44659;BME280;30378;50.186;8.644;2022-10-31T15:02:20;100328.28;;;19.03;100.00
44659;BME280;30378;50.186;8.644;2022-10-31T15:04:52;100329.19;;;19.20;100.00
44659;BME280;30378;50.186;8.644;2022-10-31T15:07:25;100331.78;;;19.29;100.00
44659;BME280;30378;50.186;8.644;2022-10-31T15:10:02;100330.53;;;19.26;100.00
44659;BME280;30378;50.186;8.644;2022-10-31T15:12:34;100332.88;;;18.96;100.00
44659;BME280;30378;50.186;8.644;2022-10-31T15:15:14;100339.38;;;18.88;100.00